createdAt,value
2023-01-09T00:01:20.913Z,2.5250000000000004
2023-01-09T00:04:17.392Z,6.4375
2023-01-09T00:07:16.952Z,2.2125
2023-01-09T00:11:16.907Z,3.6624999999999996
2023-01-09T00:14:17.936Z,3.3000000000000003
2023-01-09T00:17:17.220Z,2.3125
2023-01-09T00:21:15.887Z,1.5
2023-01-09T00:24:16.305Z,1.75
2023-01-09T00:27:16.398Z,1.5125000000000002
2023-01-09T00:31:18.237Z,1.8125
2023-01-09T00:34:17.196Z,1.5125000000000002
2023-01-09T00:37:17.051Z,2.5375
2023-01-09T00:41:20.540Z,1.175
2023-01-09T00:44:19.863Z,1.35
2023-01-09T00:47:21.766Z,1.7625000000000002
2023-01-09T00:51:18.836Z,2.7
2023-01-09T00:54:19.410Z,2
2023-01-09T00:57:17.275Z,1.8249999999999997
2023-01-09T01:01:16.158Z,1.5
2023-01-09T01:11:17.315Z,3.6624999999999996
2023-01-09T01:14:16.853Z,0.6625
2023-01-09T01:17:16.813Z,1.5375
2023-01-09T01:21:16.979Z,1.25
2023-01-09T01:24:20.030Z,3.2875
2023-01-09T01:27:17.168Z,1.35
2023-01-09T01:31:18.457Z,1.425
2023-01-09T01:34:17.161Z,0.475
2023-01-09T01:37:17.324Z,1.2375
2023-01-09T01:41:29.818Z,0.7125
2023-01-09T01:45:08.726Z,1.0375
2023-01-09T01:47:18.067Z,1.1375000000000002
2023-01-09T01:51:19.864Z,1.0625
2023-01-09T01:54:23.890Z,4.85
2023-01-09T01:57:16.652Z,2.075
2023-01-09T02:01:18.206Z,4.800000000000001
2023-01-09T02:04:17.666Z,4.9625
2023-01-09T02:07:17.125Z,4.112500000000001
2023-01-09T02:11:18.047Z,2.1125
2023-01-09T02:14:18.812Z,6.7375
2023-01-09T02:17:29.469Z,2.95
2023-01-09T02:21:27.084Z,5.75
2023-01-09T02:24:35.309Z,8.925
2023-01-09T02:27:36.558Z,3.25
2023-01-09T02:31:21.377Z,3.2750000000000004
2023-01-09T02:34:25.598Z,4.487500000000001
2023-01-09T02:37:25.038Z,8.4
2023-01-09T02:41:21.929Z,3.4125
2023-01-09T02:44:21.115Z,4.85
2023-01-09T02:47:48.473Z,3.4375
2023-01-09T02:51:23.021Z,2.55
2023-01-09T02:54:28.696Z,4.1
2023-01-09T02:57:35.636Z,5.6125
2023-01-09T03:01:26.699Z,2.25
2023-01-09T03:04:22.987Z,2.2874999999999996
2023-01-09T03:07:24.458Z,2.625
2023-01-09T03:11:16.080Z,2.6125000000000003
2023-01-09T03:14:20.485Z,4.0875
2023-01-09T03:17:22.891Z,5.8
2023-01-09T03:21:16.839Z,5.2625
2023-01-09T03:24:16.796Z,2.9125
2023-01-09T03:27:17.262Z,3.2
2023-01-09T03:31:16.890Z,3.3625
2023-01-09T03:34:16.607Z,2.6125
2023-01-09T03:37:16.549Z,2.8875
2023-01-09T03:41:17.005Z,6.225
2023-01-09T03:44:16.732Z,2.6
2023-01-09T03:47:16.814Z,2.7375
2023-01-09T03:51:16.455Z,2.925
2023-01-09T03:54:16.879Z,3.55
2023-01-09T03:57:16.702Z,2.875
2023-01-09T04:01:16.575Z,5.575
2023-01-09T04:04:17.128Z,4.5125
2023-01-09T04:07:17.403Z,5.3625
2023-01-09T04:11:18.332Z,5.5625
2023-01-09T04:14:17.134Z,3.1750000000000003
2023-01-09T04:17:17.083Z,4.225
2023-01-09T04:21:16.321Z,7.775
2023-01-09T04:24:16.893Z,7.825
2023-01-09T04:27:17.770Z,4.3125
2023-01-09T04:31:16.592Z,6.3125
2023-01-09T04:34:16.885Z,6.15
2023-01-09T04:37:16.577Z,8.274999999999999
2023-01-09T04:41:49.041Z,6.262499999999999
2023-01-09T04:44:17.592Z,11.925
2023-01-09T04:47:16.813Z,7.362500000000001
2023-01-09T04:51:16.492Z,13.425
2023-01-09T04:54:17.269Z,10.1375
2023-01-09T04:57:17.525Z,11.087499999999999
2023-01-09T05:01:16.753Z,15.637500000000001
2023-01-09T05:04:17.253Z,10.587499999999999
2023-01-09T05:07:16.920Z,12.537500000000001
2023-01-09T05:11:16.173Z,6.574999999999999
2023-01-09T05:14:16.685Z,9.8375
2023-01-09T05:17:16.391Z,6.525
2023-01-09T05:21:16.272Z,11.175
2023-01-09T05:24:16.860Z,6.975
2023-01-09T05:27:19.033Z,15.575000000000001
2023-01-09T05:31:17.593Z,11.6125
2023-01-09T05:34:17.497Z,7.325
2023-01-09T05:37:17.428Z,12.25
2023-01-09T05:41:17.524Z,14.6875
2023-01-09T05:44:17.608Z,13.350000000000001
2023-01-09T05:47:17.469Z,8.2
2023-01-09T05:51:17.198Z,19.05
2023-01-09T05:54:18.113Z,8.275
2023-01-09T05:57:17.255Z,17.275
2023-01-09T06:01:15.926Z,9.9125
2023-01-09T06:04:16.258Z,5.6875
2023-01-09T06:07:20.304Z,9.7875
2023-01-09T06:11:16.253Z,9.287500000000001
2023-01-09T06:14:16.624Z,5.675
2023-01-09T06:17:16.689Z,9.975
2023-01-09T06:21:16.108Z,12.25
2023-01-09T06:24:16.806Z,7.175000000000001
2023-01-09T06:27:16.555Z,8.25
2023-01-09T06:31:16.383Z,11.8
2023-01-09T06:34:16.763Z,4.85
2023-01-09T06:37:16.844Z,5.425000000000001
2023-01-09T06:41:16.476Z,6.824999999999999
2023-01-09T06:44:16.778Z,4.35
2023-01-09T06:47:16.902Z,3.4125
2023-01-09T06:51:16.144Z,7.1625
2023-01-09T06:54:16.698Z,4.7
2023-01-09T06:57:16.613Z,2.425
2023-01-09T07:01:16.146Z,3.1750000000000003
2023-01-09T07:04:18.008Z,2.8874999999999997
2023-01-09T07:07:16.548Z,1.775
2023-01-09T07:11:16.190Z,2.375
2023-01-09T07:14:16.625Z,1.6875
2023-01-09T07:17:16.829Z,3.775
2023-01-09T07:21:16.287Z,4.5625
2023-01-09T07:24:16.725Z,8.425
2023-01-09T07:27:16.715Z,9.175
2023-01-09T07:31:16.871Z,10.6
2023-01-09T07:34:17.142Z,10.45
2023-01-09T07:37:17.215Z,6.987500000000001
2023-01-09T07:41:15.711Z,14.537500000000001
2023-01-09T07:44:16.224Z,6.7875
2023-01-09T07:47:16.211Z,9.462499999999999
2023-01-09T07:51:21.363Z,11.975
2023-01-09T07:54:22.138Z,9.075
2023-01-09T07:57:21.663Z,11.9125
2023-01-09T15:01:20.915Z,2.8
2023-01-09T15:04:39.671Z,7.2875
2023-01-09T15:07:20.544Z,6.0375
2023-01-09T15:11:17.845Z,4.4375
2023-01-09T15:14:28.670Z,6.1625000000000005
2023-01-09T15:17:20.998Z,5.375
2023-01-09T15:21:20.884Z,7.949999999999999
2023-01-09T15:24:22.039Z,3.9875
2023-01-09T15:27:16.872Z,4.375
2023-01-09T15:31:18.939Z,5.3375
2023-01-09T15:34:19.845Z,4.875
2023-01-09T15:37:26.192Z,4.2625
2023-01-09T15:42:57.362Z,3.425
2023-01-09T15:44:20.594Z,5.6
2023-01-09T15:47:21.829Z,6.775
2023-01-09T15:51:17.682Z,2.3875
2023-01-09T15:54:20.066Z,6.4125
2023-01-09T15:57:32.295Z,5.625
2023-01-09T16:01:26.897Z,6.262499999999999
2023-01-09T16:04:16.857Z,2.825
2023-01-09T16:07:20.005Z,5.6875
2023-01-09T16:11:22.963Z,7.375
2023-01-09T16:14:20.392Z,10.537500000000001
2023-01-09T16:17:17.469Z,8.5625
2023-01-09T16:21:32.040Z,7.4
2023-01-09T16:24:26.940Z,6.0625
2023-01-09T16:27:26.640Z,3.0875
2023-01-09T16:31:20.674Z,4.4125
2023-01-09T16:34:17.819Z,3.0999999999999996
2023-01-09T16:37:16.990Z,5.325
2023-01-09T16:51:18.322Z,7.65
2023-01-09T16:54:17.014Z,8.55
2023-01-09T16:57:17.455Z,3.8375
2023-01-09T17:01:16.791Z,7.0625
2023-01-09T17:04:17.579Z,8.2875
2023-01-09T17:07:19.558Z,13.1
2023-01-09T17:11:19.809Z,8.125
2023-01-09T17:14:16.044Z,4.375
2023-01-09T17:17:16.645Z,3.8125
2023-01-09T17:21:18.227Z,8.8
2023-01-09T17:31:17.163Z,3.9875000000000003
2023-01-09T17:34:16.563Z,4
2023-01-09T17:37:18.440Z,6.6625
2023-01-09T17:41:16.327Z,6.424999999999999
2023-01-09T17:44:16.753Z,4.575
2023-01-09T17:47:16.691Z,6.574999999999999
2023-01-09T17:51:15.632Z,7.75
2023-01-09T17:54:16.172Z,5.45
2023-01-09T17:57:16.485Z,10.287500000000001
2023-01-09T18:01:17.717Z,11.5
2023-01-09T18:04:15.989Z,7.8875
2023-01-09T18:07:16.842Z,17.049999999999997
2023-01-09T18:11:19.870Z,9.4875
2023-01-09T18:14:17.731Z,10.425
2023-01-09T18:17:16.458Z,11.5625
2023-01-09T18:21:18.825Z,17.1875
2023-01-09T18:24:16.545Z,8.15
2023-01-09T18:27:25.690Z,10.475
2023-01-09T18:31:24.902Z,17.425
2023-01-09T18:34:22.607Z,9.0875
2023-01-09T18:37:27.233Z,11.662499999999998
2023-01-09T18:41:23.848Z,35.612500000000004
2023-01-09T18:44:20.529Z,12.537500000000001
2023-01-09T18:47:23.131Z,13.3875
2023-01-09T18:51:18.227Z,12.1375
2023-01-09T18:54:17.931Z,18.799999999999997
2023-01-09T18:57:29.345Z,14.5125
2023-01-09T19:01:16.737Z,21.837500000000002
2023-01-09T19:04:16.847Z,17.387500000000003
2023-01-09T19:07:17.149Z,13.75
2023-01-09T19:11:15.980Z,12.9625
2023-01-09T19:14:16.348Z,12.75
2023-01-09T19:17:16.253Z,13.787499999999998
2023-01-09T19:21:18.486Z,21.8375
2023-01-09T19:24:16.913Z,12.875
2023-01-09T19:27:17.183Z,9.725000000000001
2023-01-09T19:31:17.256Z,10.35
2023-01-09T19:34:17.956Z,25.825
2023-01-09T19:37:18.427Z,12.712499999999999
2023-01-09T19:41:19.542Z,12.2375
2023-01-09T19:44:17.072Z,15.475000000000001
2023-01-09T19:47:17.049Z,15.287499999999998
2023-01-09T19:51:17.815Z,13.787500000000001
2023-01-09T19:54:16.432Z,18.15
2023-01-09T19:57:16.535Z,10.15
2023-01-09T20:01:19.717Z,18.0625
2023-01-09T20:04:18.824Z,11.787500000000001
2023-01-09T20:07:17.327Z,12.912500000000001
2023-01-09T20:11:16.401Z,18.9625
2023-01-09T20:14:18.202Z,12.200000000000001
2023-01-09T20:17:18.022Z,21.6375
2023-01-09T20:21:16.919Z,16.4875
2023-01-09T20:24:17.106Z,13.25
2023-01-09T20:27:17.196Z,20.9
2023-01-09T20:31:22.695Z,13.8625
2023-01-09T20:34:32.989Z,21.362499999999997
2023-01-09T20:37:18.270Z,20.3375
2023-01-09T20:51:16.406Z,15.162500000000001
2023-01-09T20:54:17.896Z,15.662500000000001
2023-01-09T20:57:16.613Z,15.0125
2023-01-09T21:01:16.640Z,13.0375
2023-01-09T21:04:18.305Z,8.899999999999999
2023-01-09T21:07:17.026Z,15.65
2023-01-09T21:11:17.044Z,14.837499999999999
2023-01-09T21:14:17.160Z,21.025
2023-01-09T21:17:17.147Z,13.837499999999999
2023-01-09T21:21:18.331Z,12.5625
2023-01-09T21:24:16.324Z,23.6125
2023-01-09T21:27:16.336Z,13.487499999999999
2023-01-09T21:31:19.946Z,14.7625
2023-01-09T21:34:20.732Z,12.275
2023-01-09T21:37:17.260Z,15
2023-01-09T21:51:16.300Z,14.4875
2023-01-09T21:54:16.585Z,14.6375
2023-01-09T21:57:17.025Z,14.9375
2023-01-09T22:01:16.120Z,23.975
2023-01-09T22:04:18.588Z,14.725
2023-01-09T22:07:16.974Z,14.637500000000001
2023-01-09T22:11:16.552Z,14.6125
2023-01-09T22:14:18.287Z,9.925
2023-01-09T22:17:16.906Z,19.8
2023-01-09T22:21:17.571Z,25.875
2023-01-09T22:24:18.165Z,21.087500000000002
2023-01-09T22:27:16.171Z,19.9125
2023-01-09T22:31:18.151Z,22.25
2023-01-09T22:34:17.694Z,12.125
2023-01-09T22:37:16.632Z,20.85
2023-01-09T22:41:16.300Z,12.625
2023-01-09T22:44:16.567Z,17.35
2023-01-09T22:47:16.657Z,13.05
2023-01-09T22:51:18.329Z,16.0375
2023-01-09T22:54:16.467Z,10.475000000000001
2023-01-09T22:57:16.230Z,18.4625
2023-01-09T23:01:15.994Z,19.2875
2023-01-09T23:04:16.744Z,20.1625
2023-01-09T23:07:16.307Z,25.8375
2023-01-09T23:11:19.821Z,17.237499999999997
2023-01-09T23:14:16.585Z,22.2625
2023-01-09T23:17:16.422Z,16.7125
2023-01-09T23:21:16.642Z,13.725000000000001
2023-01-09T23:24:18.119Z,11.4375
2023-01-09T23:27:17.116Z,13.612499999999999
2023-01-09T23:31:16.671Z,14.5125
2023-01-09T23:34:19.558Z,12.7625
2023-01-09T23:37:17.026Z,11.125
2023-01-09T23:41:16.093Z,45
2023-01-09T23:44:16.679Z,12.774999999999999
2023-01-09T23:47:16.581Z,24.2125
2023-01-09T23:51:16.103Z,11.8375
2023-01-09T23:54:17.439Z,13.287500000000001
2023-01-09T23:57:16.408Z,11.175
